Time;durP1;ratioP1;P1;durP2;ratioP2;P2;SDS_P1;SDS_P2;PMS_P1;PMS_P2;Temp;Humidity;BMP_temperature;BMP_pressure;BME280_temperature;BME280_humidity;BME280_pressure;Samples;Min_cycle;Max_cycle;Signal;HPM_P1;HPM_P2
2023/09/23 00:01:39;;;;;;;1.10;0.70;;;12.50;99.90;;;;;;5111654;27;20409;-73
2023/09/23 00:04:05;;;;;;;1.02;0.90;;;12.50;99.90;;;;;;5108399;27;20441;-71
2023/09/23 00:06:31;;;;;;;1.20;0.90;;;12.40;99.90;;;;;;5089412;28;20047;-72
2023/09/23 00:08:57;;;;;;;0.77;0.75;;;12.50;99.90;;;;;;5090711;28;20119;-72
2023/09/23 00:11:22;;;;;;;0.70;0.70;;;12.40;99.90;;;;;;5106534;27;20032;-73
2023/09/23 00:13:48;;;;;;;1.23;0.68;;;12.30;99.90;;;;;;5108250;28;20043;-73
2023/09/23 00:16:16;;;;;;;0.93;0.60;;;12.40;99.90;;;;;;5109163;27;20044;-72
2023/09/23 00:18:43;;;;;;;1.77;0.70;;;12.30;99.90;;;;;;5090272;28;20432;-73
2023/09/23 00:21:09;;;;;;;;;;;12.50;99.90;;;;;;5109952;27;20043;-73
2023/09/23 00:23:34;;;;;;;0.80;0.70;;;12.30;99.90;;;;;;5107083;27;19919;-72
2023/09/23 00:26:06;;;;;;;0.88;0.63;;;12.20;99.90;;;;;;5090771;28;20490;-72
2023/09/23 00:28:32;;;;;;;0.60;0.57;;;12.40;99.90;;;;;;5105189;28;20804;-72
2023/09/23 00:31:11;;;;;;;0.93;0.65;;;12.40;99.90;;;;;;5092455;28;20075;-73
2023/09/23 00:33:37;;;;;;;0.85;0.70;;;12.20;99.90;;;;;;5106967;28;20372;-72
2023/09/23 00:36:04;;;;;;;;;;;12.30;99.90;;;;;;5108649;28;20036;-72
2023/09/23 00:38:30;;;;;;;0.65;0.63;;;12.40;99.90;;;;;;5108411;28;19915;-73
2023/09/23 00:40:57;;;;;;;1.20;0.73;;;12.30;99.90;;;;;;5090809;28;20050;-73
2023/09/23 00:43:23;;;;;;;0.85;0.60;;;12.10;99.90;;;;;;5108042;28;20492;-73
2023/09/23 00:45:54;;;;;;;1.45;0.80;;;12.30;99.90;;;;;;5089315;28;20035;-72
2023/09/23 00:48:21;;;;;;;0.85;0.70;;;12.30;99.90;;;;;;5108612;28;20398;-72
2023/09/23 00:50:48;;;;;;;0.65;0.63;;;12.10;99.90;;;;;;5109120;28;20128;-72
2023/09/23 00:53:14;;;;;;;0.65;0.50;;;12.10;99.90;;;;;;5106146;28;20035;-72
2023/09/23 00:55:43;;;;;;;0.77;0.50;;;12.10;99.90;;;;;;5088256;28;20044;-72
2023/09/23 00:58:14;;;;;;;1.00;0.60;;;12.10;99.90;;;;;;5106441;28;20036;-72
2023/09/23 01:00:43;;;;;;;0.90;0.50;;;12.00;99.90;;;;;;5105673;28;20044;-72
2023/09/23 01:03:10;;;;;;;0.70;0.50;;;12.10;99.90;;;;;;5089483;28;20036;-72
2023/09/23 01:05:36;;;;;;;0.90;0.40;;;12.00;99.90;;;;;;5105027;28;20045;-72
2023/09/23 01:08:06;;;;;;;1.23;0.50;;;12.10;99.90;;;;;;5103995;28;20114;-72
2023/09/23 01:10:32;;;;;;;1.30;0.50;;;11.90;99.90;;;;;;5089092;28;20051;-72
2023/09/23 01:12:59;;;;;;;0.75;0.50;;;12.00;99.90;;;;;;5107467;28;20042;-72
2023/09/23 01:15:30;;;;;;;;;;;12.00;99.90;;;;;;5106738;28;20659;-72
2023/09/23 01:17:56;;;;;;;0.63;0.43;;;11.90;99.90;;;;;;5107941;28;19973;-72
2023/09/23 01:20:22;;;;;;;0.40;0.40;;;12.00;99.90;;;;;;5105672;28;20121;-72
2023/09/23 01:22:48;;;;;;;0.45;0.40;;;12.00;99.90;;;;;;5106327;28;20043;-72
2023/09/23 01:25:14;;;;;;;1.08;0.57;;;11.90;99.90;;;;;;5106880;28;21744;-72
2023/09/23 01:27:40;;;;;;;0.57;0.50;;;11.80;99.90;;;;;;5106047;28;20111;-73
2023/09/23 01:30:06;;;;;;;;;;;11.90;99.90;;;;;;5108082;28;20122;-72
2023/09/23 01:32:45;;;;;;;0.90;0.47;;;11.80;99.90;;;;;;5091297;28;19999;-72
2023/09/23 01:35:12;;;;;;;0.65;0.40;;;11.80;99.90;;;;;;5107067;28;20035;-72
2023/09/23 01:37:38;;;;;;;0.57;0.40;;;11.80;99.90;;;;;;5108134;28;20035;-72
2023/09/23 01:40:05;;;;;;;0.63;0.45;;;11.80;99.90;;;;;;5088333;28;20040;-72
2023/09/23 01:42:33;;;;;;;0.40;0.30;;;11.90;99.90;;;;;;5105387;28;20044;-73
2023/09/23 01:44:59;;;;;;;0.45;0.40;;;11.90;99.90;;;;;;5105088;28;20122;-72
2023/09/23 01:47:25;;;;;;;1.58;0.30;;;11.90;99.90;;;;;;5089682;28;20053;-73
2023/09/23 01:49:51;;;;;;;0.63;0.30;;;11.80;99.90;;;;;;5103123;28;20048;-73
2023/09/23 01:52:17;;;;;;;0.50;0.45;;;11.80;99.90;;;;;;5089778;28;20032;-72
2023/09/23 01:54:48;;;;;;;0.40;0.22;;;11.90;99.90;;;;;;5107607;28;20071;-72
2023/09/23 01:57:16;;;;;;;1.15;0.30;;;11.80;99.90;;;;;;5106581;28;20044;-72
2023/09/23 01:59:45;;;;;;;0.65;0.50;;;11.80;99.90;;;;;;5104929;28;20066;-72
2023/09/23 02:02:11;;;;;;;1.10;0.30;;;11.90;99.90;;;;;;5087674;28;20043;-72
2023/09/23 02:04:38;;;;;;;0.30;0.30;;;11.80;99.90;;;;;;5091264;28;20550;-72
2023/09/23 02:07:05;;;;;;;0.40;0.22;;;11.90;99.90;;;;;;5106970;28;20159;-72
2023/09/23 02:09:30;;;;;;;0.47;0.30;;;11.90;99.90;;;;;;5108123;28;20071;-72
2023/09/23 02:11:56;;;;;;;0.68;0.50;;;11.70;99.90;;;;;;5106996;28;20082;-72
2023/09/23 02:14:22;;;;;;;0.40;0.20;;;11.70;99.90;;;;;;5091618;27;20047;-73
2023/09/23 02:16:49;;;;;;;0.30;0.30;;;11.80;99.90;;;;;;5096722;27;20497;-72
2023/09/23 02:19:15;;;;;;;0.20;0.17;;;11.80;99.90;;;;;;5095067;27;20448;-72
2023/09/23 02:21:40;;;;;;;0.30;0.30;;;11.70;99.90;;;;;;5114604;27;20047;-72
2023/09/23 02:24:06;;;;;;;0.70;0.30;;;11.70;99.90;;;;;;5113331;27;20474;-72
2023/09/23 02:26:34;;;;;;;0.50;0.40;;;11.90;99.90;;;;;;5114830;27;20110;-72
2023/09/23 02:28:59;;;;;;;0.20;0.20;;;11.90;99.90;;;;;;5098311;27;20043;-72
2023/09/23 02:31:25;;;;;;;0.25;0.25;;;11.70;99.90;;;;;;5114974;27;20050;-72
2023/09/23 02:33:51;;;;;;;0.43;0.30;;;11.60;99.90;;;;;;5081558;27;20042;-72
2023/09/23 02:36:16;;;;;;;0.60;0.45;;;11.70;99.90;;;;;;5110458;27;20043;-72
2023/09/23 02:38:42;;;;;;;0.55;0.40;;;11.60;99.90;;;;;;5096417;27;20054;-72
2023/09/23 02:41:08;;;;;;;0.30;0.30;;;11.60;99.90;;;;;;5114150;27;20118;-72
2023/09/23 02:43:34;;;;;;;0.45;0.38;;;11.60;99.90;;;;;;5111277;27;20587;-72
2023/09/23 02:46:01;;;;;;;0.40;0.40;;;11.60;99.90;;;;;;5113810;27;20035;-72
2023/09/23 02:48:28;;;;;;;0.55;0.50;;;11.70;99.90;;;;;;5112211;27;20123;-72
2023/09/23 02:50:54;;;;;;;0.50;0.50;;;11.70;99.90;;;;;;5114123;27;20043;-72
2023/09/23 02:53:19;;;;;;;0.60;0.60;;;11.60;99.90;;;;;;5113355;27;20032;-72
2023/09/23 02:55:51;;;;;;;0.60;0.60;;;11.70;99.90;;;;;;5097584;27;20031;-72
2023/09/23 02:58:23;;;;;;;0.55;0.50;;;11.70;99.90;;;;;;5097456;27;20046;-72
2023/09/23 03:00:57;;;;;;;0.70;0.70;;;11.60;99.90;;;;;;5095925;27;20046;-72
2023/09/23 03:03:23;;;;;;;1.42;0.93;;;11.50;99.90;;;;;;5094499;27;20044;-72
2023/09/23 03:05:55;;;;;;;;;;;11.70;99.90;;;;;;5112998;27;20054;-72
2023/09/23 03:08:24;;;;;;;1.30;1.00;;;11.70;99.90;;;;;;5111846;27;19919;-72
2023/09/23 03:10:52;;;;;;;1.30;1.00;;;11.80;99.90;;;;;;5112953;27;20039;-72
2023/09/23 03:13:23;;;;;;;2.15;1.50;;;11.80;99.90;;;;;;5111696;27;20035;-72
2023/09/23 03:16:08;;;;;;;2.00;1.80;;;11.60;99.90;;;;;;5095536;27;20135;-72
2023/09/23 03:18:38;;;;;;;1.40;1.30;;;11.80;99.90;;;;;;5114600;27;20050;-72
2023/09/23 03:21:08;;;;;;;1.65;1.50;;;11.80;99.90;;;;;;5112726;27;20042;-72
2023/09/23 03:23:39;;;;;;;1.73;1.30;;;11.60;99.90;;;;;;5094313;27;20683;-72
2023/09/23 03:26:08;;;;;;;1.88;1.35;;;11.50;99.90;;;;;;5111773;27;20106;-72
2023/09/23 03:28:36;;;;;;;1.70;1.45;;;11.50;99.90;;;;;;5112642;27;20438;-72
2023/09/23 03:31:03;;;;;;;2.08;1.70;;;11.50;99.90;;;;;;5096144;27;20397;-72
2023/09/23 03:33:29;;;;;;;1.48;1.38;;;11.70;99.90;;;;;;5112844;27;20079;-72
2023/09/23 03:35:55;;;;;;;;;;;11.60;99.90;;;;;;5113567;27;20041;-72
2023/09/23 03:38:21;;;;;;;1.80;1.60;;;11.40;99.90;;;;;;5113267;27;19919;-72
2023/09/23 03:40:54;;;;;;;;;;;11.60;99.90;;;;;;5113942;27;20035;-72
2023/09/23 03:43:20;;;;;;;1.77;1.45;;;11.60;99.90;;;;;;5114107;27;19915;-72
2023/09/23 03:45:47;;;;;;;1.52;1.40;;;11.30;99.90;;;;;;5114086;27;20062;-72
2023/09/23 03:48:14;;;;;;;2.13;1.42;;;11.50;99.90;;;;;;5096507;27;20049;-72
2023/09/23 03:50:40;;;;;;;1.60;1.33;;;11.30;99.90;;;;;;5113177;27;20043;-72
2023/09/23 03:53:05;;;;;;;1.42;1.30;;;11.30;99.90;;;;;;5110630;27;20496;-72
2023/09/23 03:55:31;;;;;;;1.70;1.30;;;11.30;99.90;;;;;;5096949;27;20445;-73
2023/09/23 03:57:57;;;;;;;1.70;1.33;;;11.20;99.90;;;;;;5111469;27;20509;-72
2023/09/23 04:00:26;;;;;;;1.63;1.30;;;11.20;99.90;;;;;;5112136;27;20039;-72
2023/09/23 04:02:53;;;;;;;1.80;1.48;;;11.30;99.90;;;;;;5095544;27;20035;-72
2023/09/23 04:05:20;;;;;;;1.50;1.30;;;11.30;99.90;;;;;;5113241;27;20405;-72
2023/09/23 04:07:49;;;;;;;1.83;1.60;;;11.30;99.90;;;;;;5113575;27;20050;-72
2023/09/23 04:10:17;;;;;;;1.77;1.60;;;11.40;99.90;;;;;;5112552;27;20035;-72
2023/09/23 04:12:43;;;;;;;2.15;1.58;;;11.30;99.90;;;;;;5113329;27;20499;-72
2023/09/23 04:15:09;;;;;;;2.00;1.70;;;11.00;99.90;;;;;;5079910;27;20035;-72
2023/09/23 04:17:37;;;;;;;2.53;1.85;;;11.10;99.90;;;;;;5099994;27;20335;-72
2023/09/23 04:20:08;;;;;;;1.65;1.33;;;11.10;99.90;;;;;;5116200;27;20391;-72
2023/09/23 04:22:36;;;;;;;1.70;1.45;;;11.30;99.90;;;;;;5115771;27;20122;-72
2023/09/23 04:25:04;;;;;;;1.80;1.48;;;11.30;99.90;;;;;;5115783;27;20122;-72
2023/09/23 04:27:30;;;;;;;1.88;1.60;;;11.30;99.90;;;;;;5114581;27;20047;-72
2023/09/23 04:29:56;;;;;;;1.90;1.50;;;11.00;99.90;;;;;;5115506;27;20103;-72
2023/09/23 04:32:21;;;;;;;1.70;1.60;;;11.30;99.90;;;;;;5114080;27;20359;-72
2023/09/23 04:34:47;;;;;;;1.55;1.40;;;11.20;99.90;;;;;;5113875;27;20034;-72
2023/09/23 04:37:13;;;;;;;1.80;1.50;;;11.10;99.90;;;;;;5113528;27;20122;-72
2023/09/23 04:39:38;;;;;;;1.88;1.42;;;11.00;99.90;;;;;;5095718;27;20095;-72
2023/09/23 04:42:04;;;;;;;1.33;1.23;;;11.00;99.90;;;;;;5112987;27;20088;-72
2023/09/23 04:44:34;;;;;;;1.92;1.63;;;11.00;99.90;;;;;;5115501;27;20103;-72
2023/09/23 04:47:00;;;;;;;3.03;1.75;;;11.20;99.90;;;;;;5114805;27;20066;-72
2023/09/23 04:49:27;;;;;;;1.90;1.48;;;11.00;99.90;;;;;;5114799;27;20035;-72
2023/09/23 04:51:52;;;;;;;1.90;1.50;;;11.20;99.90;;;;;;5098705;27;20039;-72
2023/09/23 04:54:18;;;;;;;1.58;1.48;;;11.00;99.90;;;;;;5114393;27;20496;-72
2023/09/23 04:56:44;;;;;;;1.80;1.30;;;10.90;99.90;;;;;;5110433;27;20529;-72
2023/09/23 04:59:11;;;;;;;2.50;1.50;;;11.20;99.90;;;;;;5111207;27;20489;-72
2023/09/23 05:01:37;;;;;;;1.80;1.30;;;11.20;99.90;;;;;;5110802;27;20062;-72
2023/09/23 05:04:08;;;;;;;1.92;1.67;;;11.00;99.90;;;;;;5092731;27;20071;-72
2023/09/23 05:06:36;;;;;;;1.73;1.52;;;10.90;99.90;;;;;;5095092;27;20142;-72
2023/09/23 05:09:02;;;;;;;2.03;1.40;;;11.20;99.90;;;;;;5111025;27;20046;-72
2023/09/23 05:11:28;;;;;;;1.45;1.35;;;11.10;99.90;;;;;;5111404;27;20046;-72
2023/09/23 05:13:54;;;;;;;2.15;1.63;;;10.90;99.90;;;;;;5113152;27;20051;-72
2023/09/23 05:16:19;;;;;;;1.52;1.42;;;11.10;99.90;;;;;;5110179;27;20391;-72
2023/09/23 05:18:46;;;;;;;2.35;1.70;;;11.10;99.90;;;;;;5109200;27;20054;-73
2023/09/23 05:21:13;;;;;;;1.80;1.50;;;11.00;99.90;;;;;;5109972;27;20501;-72
2023/09/23 05:23:41;;;;;;;1.83;1.73;;;10.90;99.90;;;;;;5110208;27;20107;-72
2023/09/23 05:26:07;;;;;;;1.85;1.58;;;11.20;99.90;;;;;;5108620;27;20119;-73
2023/09/23 05:28:33;;;;;;;1.75;1.63;;;11.10;99.90;;;;;;5092250;28;20043;-72
2023/09/23 05:30:59;;;;;;;1.23;1.10;;;11.10;99.90;;;;;;5092625;27;20047;-72
2023/09/23 05:33:25;;;;;;;2.10;1.73;;;10.90;99.90;;;;;;5108304;27;20087;-72
2023/09/23 05:35:52;;;;;;;2.20;1.60;;;11.00;99.90;;;;;;5094855;27;20035;-72
2023/09/23 05:38:19;;;;;;;1.83;1.60;;;10.90;99.90;;;;;;5110120;27;20043;-72
2023/09/23 05:40:46;;;;;;;1.85;1.70;;;11.00;99.90;;;;;;5110291;28;20046;-72
2023/09/23 05:43:12;;;;;;;1.73;1.50;;;10.80;99.90;;;;;;5108849;28;20112;-73
2023/09/23 05:45:37;;;;;;;2.00;1.65;;;10.80;99.90;;;;;;5095009;28;20070;-72
2023/09/23 05:48:04;;;;;;;1.70;1.60;;;10.80;99.90;;;;;;5108979;27;20126;-72
2023/09/23 05:50:31;;;;;;;1.98;1.77;;;10.90;99.90;;;;;;5111537;27;20035;-72
2023/09/23 05:52:57;;;;;;;2.03;1.80;;;11.00;99.90;;;;;;5105827;27;20104;-73
2023/09/23 05:55:23;;;;;;;1.70;1.52;;;11.10;99.90;;;;;;5114658;27;20031;-73
2023/09/23 05:57:51;;;;;;;1.85;1.55;;;11.00;99.90;;;;;;5113631;27;20046;-73
2023/09/23 06:00:17;;;;;;;1.70;1.60;;;10.80;99.90;;;;;;5113935;27;20039;-74
2023/09/23 06:02:47;;;;;;;1.95;1.75;;;10.90;99.90;;;;;;5094678;27;20111;-74
2023/09/23 06:05:14;;;;;;;2.72;2.13;;;10.90;99.90;;;;;;5112511;27;20043;-72
2023/09/23 06:07:41;;;;;;;2.10;1.90;;;10.80;99.90;;;;;;5113465;27;20036;-72
2023/09/23 06:10:08;;;;;;;2.05;1.85;;;11.10;99.90;;;;;;5078991;27;20043;-74
2023/09/23 06:12:35;;;;;;;1.90;1.70;;;11.00;99.90;;;;;;5097164;27;20031;-76
2023/09/23 06:15:03;;;;;;;2.42;2.13;;;11.00;99.90;;;;;;5093849;27;20517;-77
2023/09/23 06:17:29;;;;;;;2.20;2.00;;;11.10;99.90;;;;;;5093548;27;20042;-78
2023/09/23 06:19:59;;;;;;;2.20;2.00;;;11.10;99.90;;;;;;5116524;27;20035;-78
2023/09/23 06:22:26;;;;;;;3.13;2.40;;;11.20;99.90;;;;;;5114459;27;20047;-77
2023/09/23 06:24:53;;;;;;;2.20;2.00;;;11.00;99.90;;;;;;5115308;27;20035;-74
2023/09/23 06:27:19;;;;;;;2.50;2.10;;;11.00;99.90;;;;;;5114925;27;20046;-74
2023/09/23 06:29:45;;;;;;;2.45;2.25;;;11.10;99.90;;;;;;5077409;27;20039;-74
2023/09/23 06:32:12;;;;;;;2.60;2.40;;;11.10;99.90;;;;;;5093931;27;20432;-74
2023/09/23 06:34:37;;;;;;;2.42;2.22;;;11.10;99.90;;;;;;5128950;27;20035;-75
2023/09/23 06:37:03;;;;;;;2.50;2.30;;;11.30;99.90;;;;;;5116808;27;20039;-74
2023/09/23 06:39:29;;;;;;;2.78;2.58;;;11.50;99.90;;;;;;5096713;27;20349;-74
2023/09/23 06:41:55;;;;;;;3.10;2.75;;;11.60;99.90;;;;;;5097661;27;20050;-74
2023/09/23 06:44:21;;;;;;;2.95;2.67;;;11.50;99.90;;;;;;5113268;27;20042;-76
2023/09/23 06:46:47;;;;;;;3.95;3.30;;;11.50;99.90;;;;;;5095945;27;20035;-78
2023/09/23 06:49:12;;;;;;;3.92;3.53;;;11.70;99.90;;;;;;5108722;27;20082;-77
2023/09/23 06:51:38;;;;;;;6.25;5.15;;;11.90;99.90;;;;;;5078547;27;20043;-77
2023/09/23 06:54:04;;;;;;;5.03;4.25;;;11.90;99.90;;;;;;5098329;27;20107;-77
2023/09/23 06:56:30;;;;;;;;;;;11.70;99.90;;;;;;5097196;27;20755;-75
2023/09/23 06:58:56;;;;;;;4.72;4.32;;;11.80;99.90;;;;;;5094081;27;19972;-74
2023/09/23 07:01:22;;;;;;;5.38;4.72;;;11.70;99.90;;;;;;5112732;27;20116;-74
2023/09/23 07:03:48;;;;;;;5.60;5.00;;;12.10;99.90;;;;;;5098044;27;20160;-77
2023/09/23 07:06:14;;;;;;;4.78;4.03;;;11.80;99.90;;;;;;5116167;27;20401;-77
2023/09/23 07:08:40;;;;;;;5.72;5.07;;;11.80;99.90;;;;;;5113633;27;20043;-77
2023/09/23 07:11:15;;;;;;;5.32;4.30;;;11.90;99.90;;;;;;5087208;27;20043;-79
2023/09/23 07:13:41;;;;;;;5.28;4.18;;;11.90;99.90;;;;;;5113647;27;20039;-74
2023/09/23 07:16:14;;;;;;;5.47;4.88;;;12.20;99.90;;;;;;5098638;27;20050;-72
2023/09/23 07:18:40;;;;;;;4.68;4.10;;;12.10;99.90;;;;;;5114518;27;20070;-71
2023/09/23 07:21:06;;;;;;;4.68;4.22;;;12.30;99.90;;;;;;5114363;27;20043;-72
2023/09/23 07:23:32;;;;;;;4.45;3.78;;;12.00;99.90;;;;;;5114166;27;20051;-72
2023/09/23 07:25:59;;;;;;;4.47;3.92;;;12.10;99.90;;;;;;5116497;27;20043;-72
2023/09/23 07:28:25;;;;;;;4.57;4.00;;;12.20;99.90;;;;;;5114879;27;20092;-72
2023/09/23 07:30:51;;;;;;;5.78;3.85;;;12.50;99.90;;;;;;5116193;27;20502;-72
2023/09/23 07:33:16;;;;;;;3.97;3.47;;;12.30;99.90;;;;;;5118409;27;20042;-71
2023/09/23 07:35:43;;;;;;;4.60;3.40;;;12.50;99.90;;;;;;5113936;27;20143;-72
2023/09/23 07:38:08;;;;;;;;;;;12.50;99.90;;;;;;5117173;27;20375;-72
2023/09/23 07:40:39;;;;;;;4.50;3.75;;;12.50;99.90;;;;;;5115844;27;19927;-72
2023/09/23 07:43:05;;;;;;;4.15;3.60;;;12.90;99.90;;;;;;5082093;27;20051;-72
2023/09/23 07:45:31;;;;;;;4.80;4.05;;;12.90;99.90;;;;;;5114844;27;20046;-72
2023/09/23 07:47:56;;;;;;;3.42;3.13;;;13.00;99.90;;;;;;5114005;27;20115;-72
2023/09/23 07:50:22;;;;;;;4.35;3.58;;;13.20;99.90;;;;;;5114966;27;20030;-72
2023/09/23 07:52:48;;;;;;;4.30;3.53;;;13.10;99.90;;;;;;5113997;27;20511;-72
2023/09/23 07:55:14;;;;;;;5.35;4.60;;;13.50;99.90;;;;;;5111888;27;20035;-74
2023/09/23 07:57:39;;;;;;;4.72;4.22;;;13.40;99.90;;;;;;5095614;27;20043;-72
2023/09/23 08:00:08;;;;;;;4.65;3.97;;;13.70;99.90;;;;;;5113841;27;20062;-72
2023/09/23 08:02:35;;;;;;;5.60;4.35;;;13.60;99.90;;;;;;5110684;27;20055;-72
2023/09/23 08:05:03;;;;;;;5.90;5.07;;;13.60;99.90;;;;;;5091346;27;20035;-72
2023/09/23 08:07:30;;;;;;;5.38;4.35;;;13.50;99.90;;;;;;5109695;27;20046;-72
2023/09/23 08:09:57;;;;;;;5.20;4.60;;;13.50;99.90;;;;;;5110844;27;20441;-75
2023/09/23 08:12:23;;;;;;;5.40;4.75;;;13.60;99.90;;;;;;5110768;27;20390;-74
2023/09/23 08:14:48;;;;;;;5.07;3.83;;;13.50;99.90;;;;;;5111629;27;20496;-74
2023/09/23 08:17:14;;;;;;;4.32;3.80;;;13.80;99.90;;;;;;5110889;27;20043;-72
2023/09/23 08:19:40;;;;;;;5.13;3.95;;;13.70;99.90;;;;;;5112700;27;20039;-72
2023/09/23 08:22:06;;;;;;;4.68;4.18;;;13.60;99.90;;;;;;5111891;27;20477;-72
2023/09/23 08:24:32;;;;;;;4.88;4.30;;;13.70;99.90;;;;;;5113094;27;20042;-72
2023/09/23 08:26:58;;;;;;;3.92;3.50;;;13.70;99.90;;;;;;5094659;27;20043;-72
2023/09/23 08:29:24;;;;;;;4.10;3.65;;;14.00;99.90;;;;;;5093049;27;20344;-72
2023/09/23 08:31:50;;;;;;;4.50;3.40;;;13.90;99.90;;;;;;5110423;27;20041;-72
2023/09/23 08:34:17;;;;;;;3.90;3.50;;;14.00;99.90;;;;;;5108841;27;20036;-73
2023/09/23 08:36:43;;;;;;;4.40;3.55;;;14.00;99.90;;;;;;5111129;27;20126;-73
2023/09/23 08:39:09;;;;;;;4.05;3.47;;;14.00;99.90;;;;;;5108549;27;20084;-73
2023/09/23 08:41:36;;;;;;;4.93;3.80;;;14.00;99.90;;;;;;5111611;27;20104;-73
2023/09/23 08:44:05;;;;;;;5.18;3.13;;;14.30;99.90;;;;;;5111713;27;20054;-73
2023/09/23 08:46:32;;;;;;;4.38;3.83;;;14.40;99.90;;;;;;5111283;27;20113;-73
2023/09/23 08:49:01;;;;;;;4.85;4.03;;;14.50;99.90;;;;;;5092137;27;20042;-73
2023/09/23 08:51:27;;;;;;;4.45;3.72;;;14.60;99.90;;;;;;5112099;27;20089;-73
2023/09/23 08:53:54;;;;;;;4.78;3.75;;;14.80;99.90;;;;;;5112643;27;20679;-73
2023/09/23 08:56:21;;;;;;;4.25;3.85;;;14.80;99.90;;;;;;5110189;27;20067;-73
2023/09/23 08:58:49;;;;;;;5.10;3.70;;;14.80;99.90;;;;;;5110269;27;20054;-72
2023/09/23 09:01:17;;;;;;;4.97;3.78;;;14.80;99.90;;;;;;5112012;27;20098;-73
2023/09/23 09:03:44;;;;;;;4.63;3.80;;;14.90;99.90;;;;;;5094342;27;20058;-73
2023/09/23 09:06:21;;;;;;;3.88;3.47;;;15.00;99.90;;;;;;5112209;27;20035;-73
2023/09/23 09:08:47;;;;;;;3.60;3.00;;;15.10;99.90;;;;;;5111311;27;20047;-73
2023/09/23 09:11:22;;;;;;;3.72;3.00;;;15.20;99.90;;;;;;5110010;27;20035;-73
2023/09/23 09:13:47;;;;;;;4.03;3.00;;;15.20;99.90;;;;;;5109082;27;20084;-73
2023/09/23 09:16:13;;;;;;;4.78;3.90;;;15.30;99.90;;;;;;5110308;27;20047;-73
2023/09/23 09:18:39;;;;;;;4.57;3.25;;;15.40;99.90;;;;;;5111356;27;20058;-73
2023/09/23 09:21:08;;;;;;;4.13;3.38;;;15.40;99.90;;;;;;5110292;28;20035;-73
2023/09/23 09:23:36;;;;;;;3.88;3.47;;;15.50;99.90;;;;;;5110551;27;20103;-73
2023/09/23 09:26:02;;;;;;;3.60;3.22;;;15.50;99.90;;;;;;5110762;27;20068;-73
2023/09/23 09:28:30;;;;;;;;;;;15.40;99.90;;;;;;5094441;28;20039;-73
2023/09/23 09:30:57;;;;;;;3.25;2.95;;;15.30;99.90;;;;;;5111553;28;19921;-73
2023/09/23 09:33:26;;;;;;;4.82;2.63;;;15.50;99.90;;;;;;5112051;27;20039;-73
2023/09/23 09:35:56;;;;;;;4.80;2.60;;;15.50;99.90;;;;;;5109836;27;20396;-73
2023/09/23 09:38:25;;;;;;;3.65;2.10;;;15.70;99.90;;;;;;5073180;28;20039;-73
2023/09/23 09:40:56;;;;;;;3.33;2.33;;;15.70;99.90;;;;;;5111001;27;20043;-73
2023/09/23 09:43:23;;;;;;;2.92;2.10;;;15.80;99.90;;;;;;5109957;28;20043;-73
2023/09/23 09:45:49;;;;;;;2.28;1.70;;;15.80;99.90;;;;;;5093060;27;20074;-73
2023/09/23 09:48:18;;;;;;;3.20;1.90;;;15.70;99.90;;;;;;5109275;28;20050;-73
2023/09/23 09:50:45;;;;;;;3.63;1.83;;;15.60;99.90;;;;;;5110574;28;20367;-73
2023/09/23 09:53:12;;;;;;;2.13;1.60;;;15.60;99.90;;;;;;5110237;28;20062;-73
2023/09/23 09:55:38;;;;;;;3.10;1.90;;;15.70;99.90;;;;;;5093103;28;20034;-73
2023/09/23 09:58:04;;;;;;;2.53;1.35;;;15.70;99.90;;;;;;5109880;28;20791;-73
2023/09/23 10:00:37;;;;;;;2.10;1.40;;;15.80;99.90;;;;;;5108050;28;20501;-73
2023/09/23 10:03:08;;;;;;;1.63;1.25;;;16.00;99.90;;;;;;5110587;28;20039;-73
2023/09/23 10:05:49;;;;;;;1.88;1.23;;;16.10;99.90;;;;;;5109457;28;20087;-73
2023/09/23 10:08:19;;;;;;;2.20;1.20;;;16.30;99.90;;;;;;5108089;28;20643;-73
2023/09/23 10:10:49;;;;;;;1.58;1.02;;;16.50;99.90;;;;;;5110602;28;20393;-73
2023/09/23 10:13:23;;;;;;;2.05;1.05;;;16.50;99.90;;;;;;5111212;28;20066;-73
2023/09/23 10:15:49;;;;;;;2.88;1.50;;;16.60;99.90;;;;;;5111274;28;20066;-73
2023/09/23 10:18:18;;;;;;;;;;;16.60;99.90;;;;;;5109154;28;20084;-73
2023/09/23 10:20:52;;;;;;;1.60;1.20;;;16.50;99.90;;;;;;5115515;28;19923;-73
2023/09/23 10:23:20;;;;;;;2.65;1.20;;;16.50;99.90;;;;;;5093636;28;20149;-78
2023/09/23 10:25:52;;;;;;;1.02;0.75;;;16.40;99.90;;;;;;5108993;27;20041;-73
2023/09/23 10:28:22;;;;;;;0.95;0.80;;;16.30;99.90;;;;;;5108622;28;20486;-73
2023/09/23 10:31:05;;;;;;;2.35;1.20;;;16.20;99.90;;;;;;5109625;27;20039;-74
2023/09/23 10:33:36;;;;;;;2.13;1.15;;;16.10;99.90;;;;;;5112600;27;20511;-74
2023/09/23 10:36:04;;;;;;;3.60;1.42;;;16.10;99.90;;;;;;5080101;27;20542;-74
2023/09/23 10:38:34;;;;;;;1.80;1.15;;;15.90;99.90;;;;;;5095657;27;20039;-74
2023/09/23 10:41:00;;;;;;;1.38;0.98;;;15.90;99.90;;;;;;5114678;27;20039;-73
2023/09/23 10:43:27;;;;;;;2.17;1.10;;;15.80;99.90;;;;;;5098047;27;20122;-73
2023/09/23 10:45:54;;;;;;;2.17;1.02;;;15.70;99.90;;;;;;5112022;27;20036;-73
2023/09/23 10:48:20;;;;;;;1.85;1.35;;;15.70;99.90;;;;;;5111451;27;20077;-74
2023/09/23 10:50:46;;;;;;;2.90;1.40;;;16.00;99.90;;;;;;5096187;27;20478;-74
2023/09/23 10:53:13;;;;;;;2.15;1.65;;;16.20;99.90;;;;;;5110543;27;20039;-75
2023/09/23 10:55:40;;;;;;;2.05;1.10;;;16.40;99.90;;;;;;5113508;27;20423;-74
2023/09/23 10:58:09;;;;;;;;;;;16.60;99.90;;;;;;5093585;27;20043;-74
2023/09/23 11:00:38;;;;;;;2.97;1.35;;;16.40;99.90;;;;;;5092723;27;19919;-74
2023/09/23 11:03:12;;;;;;;3.90;1.48;;;16.20;99.90;;;;;;5095217;27;20096;-74
2023/09/23 11:05:39;;;;;;;1.77;1.00;;;16.00;99.90;;;;;;5127058;27;20039;-75
2023/09/23 11:08:10;;;;;;;2.65;1.10;;;15.70;99.90;;;;;;5110909;27;20074;-74
2023/09/23 11:10:40;;;;;;;1.45;0.80;;;15.40;99.90;;;;;;5110979;27;20061;-75
2023/09/23 11:13:08;;;;;;;2.65;1.13;;;15.40;99.90;;;;;;5112015;27;20046;-75
2023/09/23 11:15:35;;;;;;;1.38;0.70;;;15.30;99.90;;;;;;5112545;27;20058;-74
2023/09/23 11:18:01;;;;;;;2.80;1.30;;;15.20;99.90;;;;;;5113037;27;20111;-74
2023/09/23 11:20:28;;;;;;;1.80;0.95;;;15.30;99.90;;;;;;5104825;27;20146;-74
2023/09/23 11:22:58;;;;;;;1.15;0.80;;;15.40;99.90;;;;;;5107552;27;20114;-75
2023/09/23 11:25:24;;;;;;;1.25;0.88;;;15.50;99.90;;;;;;5094544;27;20135;-76
2023/09/23 11:27:51;;;;;;;1.98;0.90;;;15.60;99.90;;;;;;5112124;27;20104;-74
2023/09/23 11:30:17;;;;;;;2.28;1.17;;;15.60;99.90;;;;;;5092922;27;20045;-73
2023/09/23 11:32:42;;;;;;;2.55;1.10;;;15.60;99.90;;;;;;5114724;27;20106;-73
2023/09/23 11:35:08;;;;;;;1.40;0.88;;;15.50;99.90;;;;;;5098928;27;20043;-73
2023/09/23 11:37:34;;;;;;;1.23;0.80;;;15.50;99.90;;;;;;5093589;27;20062;-74
2023/09/23 11:40:00;;;;;;;0.75;0.68;;;15.30;99.90;;;;;;5112615;27;20341;-74
2023/09/23 11:42:25;;;;;;;1.73;0.80;;;15.30;99.90;;;;;;5096738;27;20039;-73
2023/09/23 11:44:51;;;;;;;0.70;0.50;;;15.30;99.90;;;;;;5094847;27;20562;-73
2023/09/23 11:47:21;;;;;;;0.73;0.60;;;15.30;99.90;;;;;;5117318;27;20576;-73
2023/09/23 11:49:46;;;;;;;1.05;0.60;;;15.20;99.90;;;;;;5115530;27;20117;-73
2023/09/23 11:52:12;;;;;;;1.15;0.90;;;15.20;99.90;;;;;;5095838;27;20130;-74
2023/09/23 11:54:42;;;;;;;1.35;0.90;;;15.20;99.90;;;;;;5094609;27;20058;-74
2023/09/23 11:57:08;;;;;;;1.52;0.77;;;15.30;99.90;;;;;;5094871;27;20050;-74
2023/09/23 11:59:34;;;;;;;;;;;15.30;99.90;;;;;;5115032;27;20153;-74
2023/09/23 12:02:00;;;;;;;2.50;1.07;;;15.30;99.90;;;;;;5113418;27;20009;-74
2023/09/23 12:04:26;;;;;;;1.20;0.60;;;15.20;99.90;;;;;;5111543;27;20040;-74
2023/09/23 12:06:51;;;;;;;1.27;0.70;;;15.20;99.90;;;;;;5110792;27;20084;-74
2023/09/23 12:09:17;;;;;;;0.73;0.40;;;15.00;99.90;;;;;;5110696;27;20167;-73
2023/09/23 12:11:43;;;;;;;0.90;0.52;;;15.10;99.90;;;;;;5106330;27;20043;-73
2023/09/23 12:14:09;;;;;;;0.32;0.32;;;15.10;99.90;;;;;;5110593;27;20035;-73
2023/09/23 12:16:35;;;;;;;0.60;0.40;;;15.10;99.90;;;;;;5114281;27;20630;-73
2023/09/23 12:19:00;;;;;;;0.77;0.40;;;15.20;99.90;;;;;;5109931;27;20085;-74
2023/09/23 12:21:26;;;;;;;0.93;0.40;;;15.20;99.90;;;;;;5112290;27;20137;-73
2023/09/23 12:23:59;;;;;;;0.90;0.45;;;15.10;99.90;;;;;;5111816;27;20089;-74
2023/09/23 12:26:28;;;;;;;0.93;0.47;;;15.20;99.90;;;;;;5109585;27;20167;-73
2023/09/23 12:28:54;;;;;;;0.75;0.43;;;15.00;99.90;;;;;;5115750;27;20091;-74
2023/09/23 12:31:20;;;;;;;0.68;0.40;;;15.00;99.90;;;;;;5115585;27;20035;-74
2023/09/23 12:33:46;;;;;;;0.30;0.28;;;15.00;99.90;;;;;;5107373;27;20466;-74
2023/09/23 12:36:11;;;;;;;0.65;0.30;;;15.10;99.90;;;;;;5093918;27;20506;-74
2023/09/23 12:38:37;;;;;;;0.30;0.30;;;15.40;99.90;;;;;;5109869;27;20450;-74
2023/09/23 12:41:03;;;;;;;0.30;0.30;;;15.70;99.90;;;;;;5096599;27;20113;-74
2023/09/23 12:43:29;;;;;;;0.75;0.40;;;16.00;99.90;;;;;;5093080;27;20035;-74
2023/09/23 12:45:54;;;;;;;;;;;16.20;99.90;;;;;;5113173;27;20046;-74
2023/09/23 12:48:20;;;;;;;0.88;0.43;;;16.50;99.90;;;;;;5108156;27;19919;-74
2023/09/23 12:50:46;;;;;;;1.63;0.60;;;16.80;99.90;;;;;;5095443;27;20105;-74